PAGINA EN CONSTRUCCIÓN

DISCULPEN POSIBLES FALLOS



Daganzo more information Daganzo


Meteosat more information blitzortung!


Radar lluvias  rain snow radar


Visita nuestra red de sitios de meteo:

Documentation for the template used

MeteoibericaRed estaciones Meteorologicas



Sin Advertencias climatologicas .En este momento tenemos Nivel Verde.    No hay Alarmas

Informes METAR proximidad

   
LEMD - Madrid/Barajas
Actualización: 16-11-2018 05:30
Parcialmente nublado  
Parcialmente nublado  
   Viento: varía 1.9 km/h
Viento: varía 1.9 km/h
Temperatura: 12°C
Punto de rocío: 12°C
Humedad: 100%
Baromètro: 1019 hPa
Nublado: Parcialmente nublado
Visibilidad: 7 km
detalles de la nube: Parcialmente nublado 2700 ft,
Parcialmente nublado 4000 ft
LEMD 160530Z VRB01KT 7000 BKN027 BKN040 12/12 Q1019 NOSIG
LEBL - Barcelona/El Prat
Actualización: 16-11-2018 05:30
Parcialmente nublado  
Parcialmente nublado  
   Viento: NNW 11.1 km/h
Viento: NNW 11.1 km/h
Temperatura: 14°C
Punto de rocío: 12°C
Humedad: 88%
Baromètro: 1020 hPa
Nublado: Parcialmente nublado
Visibilidad: More than 10 km
detalles de la nube: Parcialmente Nublado 2000 ft,
Parcialmente nublado 3500 ft
LEBL 160530Z 33006KT 9999 SCT020 BKN035 14/12 Q1020 NOSIG
LEVC - Valencia
Actualización: 16-11-2018 05:30
Parcialmente nublado  
Parcialmente nublado  
   Viento: NW 9.3 km/h
Viento: NW 9.3 km/h
Temperatura: 15°C
Punto de rocío: 15°C
Humedad: 100%
Baromètro: 1019 hPa
Nublado: Parcialmente nublado
Visibilidad: More than 10 km
detalles de la nube: Parcialmente Nublado 1800 ft,
Nubes dispersas 2500 ft,
Parcialmente nublado 4000 ft
LEVC 160530Z 31005KT 9999 SCT018 FEW025CB BKN040 15/15 Q1019 RESHRA TEMPO 4000 TSRA
LETO - Madrid/Torrejon
Actualización: 16-11-2018 05:00
Parcialmente Nublado  
Parcialmente Nublado  
   Viento: NNE 3.7 km/h
Viento: NNE 3.7 km/h
Temperatura: 12°C
Punto de rocío: 11°C
Humedad: 94%
Baromètro: 1019 hPa
Nublado: Parcialmente Nublado
Visibilidad: More than 10 km
detalles de la nube: Nubes dispersas 5000 ft,
Parcialmente Nublado 6500 ft
LETO 160500Z 03002KT 9999 FEW050 SCT065 12/11 Q1019 NOSIG
LEVS - Madrid/Cuatro Vientos
Actualización: 15-11-2018 19:00
NO actual
Nubes dispersas  
Nubes dispersas  
   Viento: ENE 5.6 km/h
Viento: ENE 5.6 km/h
Temperatura: 14°C
Punto de rocío: 11°C
Humedad: 82%
Baromètro: 1018 hPa
Nublado: Nubes dispersas
Visibilidad: More than 10 km
detalles de la nube: Nubes dispersas 3500 ft
LEVS 151900Z 06003KT 030V100 9999 FEW035 14/11 Q1018
LEGT - Madrid/Getafe
Actualización: 16-11-2018 05:00
Parcialmente nublado  
Parcialmente nublado  
   Viento: ENE 7.4 km/h
Viento: ENE 7.4 km/h
Temperatura: 13°C
Punto de rocío: 10°C
Humedad: 82%
Baromètro: 1019 hPa
Nublado: Parcialmente nublado
Visibilidad: More than 10 km
detalles de la nube: Parcialmente nublado 2000 ft
LEGT 160500Z 07004KT 9999 BKN020 13/10 Q1019
LEVD - Valladolid
Actualización: 15-11-2018 20:30
NO actual
Despejado  
Despejado  
   Viento: E 11.1 km/h
Viento: E 11.1 km/h
Temperatura: 10°C
Térmica: 8°C
Punto de rocío: 8°C
Humedad: 88%
Baromètro: 1019 hPa
Visibilidad: More than 10 km
detalles de la nube: Despejado
LEVD 152030Z 08006KT CAVOK 10/08 Q1019
LEZG - Zaragoza
Actualización: 16-11-2018 05:30
Parcialmente nublado  
Parcialmente nublado  
   Viento: calma
Viento: calma
Temperatura: 12°C
Punto de rocío: 11°C
Humedad: 94%
Baromètro: 1021 hPa
Nublado: Parcialmente nublado
Visibilidad: More than 10 km
detalles de la nube: Nubes dispersas 600 ft,
Parcialmente nublado 2000 ft
LEZG 160530Z 00000KT 9999 FEW006 BKN020 12/11 Q1021
LEVT - Vitoria
Actualización: 16-11-2018 05:30
Niebla, Nubes dispersas  
Niebla, Nubes dispersas  
   Viento: calma
Viento: calma
Temperatura: 6°C
Punto de rocío: 6°C
Humedad: 100%
Baromètro: 1020 hPa
Nublado: Nubes dispersas
Visibilidad: 5 km
detalles de la nube: Nubes dispersas 100 ft
LEVT 160530Z 00000KT 5000 BR FEW001 06/06 Q1020
LELN - Leon/Virgen del Camino
Actualización: 16-11-2018 05:30
Despejado  
Despejado  
   Viento: N 7.4 km/h
Viento: N 7.4 km/h
Temperatura: 8°C
Térmica: 7°C
Punto de rocío: 7°C
Humedad: 93%
Baromètro: 1019 hPa
Nublado: Despejado
Visibilidad: 9 km
detalles de la nube: Despejado
LELN 160530Z AUTO 35004KT 9000 NCD 08/07 Q1019
LEPP - Pamplona/Noain
Actualización: 16-11-2018 05:30
Parcialmente nublado  
Parcialmente nublado  
   Viento: varía 3.7 km/h
Viento: varía 3.7 km/h
Temperatura: 8°C
Punto de rocío: 7°C
Humedad: 93%
Baromètro: 1021 hPa
Nublado: Parcialmente nublado
Visibilidad: 9 km
detalles de la nube: Parcialmente nublado 2800 ft
LEPP 160530Z VRB02KT 9000 BKN028 08/07 Q1021
LEBB - Bilbao/Sondica
Actualización: 16-11-2018 05:30
Despejado  
Despejado  
   Viento: SE 20.4 km/h
Viento: SE 20.4 km/h
Temperatura: 15°C
Punto de rocío: 10°C
Humedad: 72%
Baromètro: 1018 hPa
Visibilidad: More than 10 km
detalles de la nube: Despejado
LEBB 160530Z 13011KT CAVOK 15/10 Q1018 NOSIG

Guión original por  Saratoga-weather.org Adaptado para la plantilla por  Weerstation Leuven

Usted encontrará nuestra información del tiempo también en:

WeatherCloud

Weather Underground

Iberian Peninsula Weather Network

AWEKAS

Citizen Weather Observer Program (CWOP)